createdAt,value
2019-03-08T00:00:41.315Z,34.64
2019-03-08T00:03:09.467Z,34.66
2019-03-08T00:05:38.062Z,34.46
2019-03-08T00:08:06.064Z,34.25
2019-03-08T00:10:34.039Z,34.06
2019-03-08T00:13:02.213Z,33.99
2019-03-08T00:15:30.393Z,33.84
2019-03-08T00:17:58.211Z,33.92
2019-03-08T00:20:26.029Z,33.64
2019-03-08T00:22:54.610Z,34.06
2019-03-08T00:25:22.442Z,34.44
2019-03-08T00:27:50.831Z,34.58
2019-03-08T00:30:18.661Z,34.61
2019-03-08T00:32:46.638Z,34.53
2019-03-08T00:35:15.158Z,34.57
2019-03-08T00:37:43.975Z,34.68
2019-03-08T00:40:12.200Z,34.59
2019-03-08T00:42:40.353Z,34.63
2019-03-08T00:45:09.358Z,34.70
2019-03-08T00:47:37.783Z,34.48
2019-03-08T00:50:05.972Z,34.04
2019-03-08T00:52:34.931Z,34.17
2019-03-08T00:55:03.002Z,33.98
2019-03-08T00:57:30.692Z,33.66
2019-03-08T00:59:58.537Z,33.95
2019-03-08T01:02:26.857Z,33.80
2019-03-08T01:04:54.545Z,34.02
2019-03-08T01:07:22.404Z,34.40
2019-03-08T01:09:50.209Z,34.51
2019-03-08T01:12:17.938Z,34.55
2019-03-08T01:14:45.961Z,34.54
2019-03-08T01:17:15.428Z,34.56
2019-03-08T01:19:43.757Z,34.49
2019-03-08T01:22:11.449Z,34.60
2019-03-08T01:24:39.273Z,34.56
2019-03-08T01:27:07.298Z,34.59
2019-03-08T01:29:35.302Z,34.29
2019-03-08T01:32:05.384Z,34.08
2019-03-08T01:34:33.067Z,34.08
2019-03-08T01:37:01.062Z,33.92
2019-03-08T01:39:28.875Z,33.74
2019-03-08T01:41:56.717Z,33.83
2019-03-08T01:44:25.092Z,33.61
2019-03-08T01:46:54.260Z,34.07
2019-03-08T01:49:22.441Z,34.44
2019-03-08T01:51:50.952Z,34.39
2019-03-08T01:54:19.184Z,34.51
2019-03-08T01:56:47.488Z,34.47
2019-03-08T01:59:15.528Z,34.50
2019-03-08T02:01:43.343Z,34.48
2019-03-08T02:04:12.025Z,34.56
2019-03-08T02:06:39.949Z,34.45
2019-03-08T02:09:07.864Z,34.47
2019-03-08T02:11:35.638Z,34.27
2019-03-08T02:14:03.578Z,34.18
2019-03-08T02:16:31.670Z,33.90
2019-03-08T02:19:00.490Z,33.76
2019-03-08T02:21:28.578Z,34.02
2019-03-08T02:23:56.251Z,33.77
2019-03-08T02:26:24.226Z,33.76
2019-03-08T02:28:52.553Z,34.21
2019-03-08T02:31:20.396Z,34.43
2019-03-08T02:33:48.346Z,34.54
2019-03-08T02:36:17.462Z,34.55
2019-03-08T02:38:45.752Z,34.54
2019-03-08T02:41:13.837Z,34.63
2019-03-08T02:43:41.853Z,34.63
2019-03-08T02:46:09.868Z,34.66
2019-03-08T02:48:37.542Z,34.71
2019-03-08T02:51:05.602Z,34.77
2019-03-08T02:53:34.052Z,34.53
2019-03-08T02:56:01.934Z,34.50
2019-03-08T02:58:29.929Z,34.35
2019-03-08T03:00:58.209Z,34.48
2019-03-08T03:03:25.873Z,34.27
2019-03-08T03:05:53.641Z,34.15
2019-03-08T03:08:21.946Z,34.11
2019-03-08T03:10:49.838Z,34.20
2019-03-08T03:13:17.498Z,34.53
2019-03-08T03:15:45.717Z,34.56
2019-03-08T03:18:13.682Z,34.66
2019-03-08T03:20:41.834Z,34.75
2019-03-08T03:23:09.515Z,34.75
2019-03-08T03:25:37.339Z,34.77
2019-03-08T03:28:05.383Z,34.78
2019-03-08T03:30:33.124Z,34.85
2019-03-08T03:33:01.211Z,34.89
2019-03-08T03:35:29.227Z,34.84
2019-03-08T03:37:56.905Z,34.75
2019-03-08T03:40:24.630Z,34.71
2019-03-08T03:42:52.587Z,34.71
2019-03-08T03:45:20.275Z,34.66
2019-03-08T03:47:48.544Z,34.68
2019-03-08T03:50:18.731Z,34.80
2019-03-08T03:52:46.696Z,34.60
2019-03-08T03:55:14.542Z,34.99
2019-03-08T03:57:42.311Z,35.12
2019-03-08T04:00:11.989Z,35.17
2019-03-08T04:02:39.781Z,35.12
2019-03-08T04:05:07.750Z,35.23
2019-03-08T04:07:35.658Z,35.20
2019-03-08T04:10:04.441Z,35.31
2019-03-08T04:12:32.162Z,35.34
2019-03-08T04:14:59.915Z,35.23
2019-03-08T04:17:27.936Z,35.16
2019-03-08T04:19:55.651Z,35.13
2019-03-08T04:22:23.515Z,34.98
2019-03-08T04:24:51.491Z,34.99
2019-03-08T04:27:19.184Z,34.90
2019-03-08T04:29:47.232Z,34.82
2019-03-08T04:32:15.037Z,34.94
2019-03-08T04:34:43.344Z,34.73
2019-03-08T04:37:11.433Z,35.02
2019-03-08T04:39:39.464Z,35.20
2019-03-08T04:42:07.212Z,35.24
2019-03-08T04:44:36.141Z,35.26
2019-03-08T04:47:03.915Z,35.27
2019-03-08T04:49:31.686Z,35.31
2019-03-08T04:52:00.481Z,35.31
2019-03-08T04:54:28.274Z,35.27
2019-03-08T04:56:56.064Z,35.24
2019-03-08T04:59:24.211Z,35.20
2019-03-08T05:01:51.764Z,35.22
2019-03-08T05:04:19.439Z,35.08
2019-03-08T05:06:47.234Z,34.87
2019-03-08T05:09:15.306Z,34.83
2019-03-08T05:11:43.243Z,35.01
2019-03-08T05:14:11.683Z,34.87
2019-03-08T05:16:39.336Z,34.82
2019-03-08T05:19:07.146Z,34.97
2019-03-08T05:21:34.837Z,35.05
2019-03-08T05:24:02.760Z,35.09
2019-03-08T05:26:30.677Z,35.13
2019-03-08T05:29:01.436Z,35.22
2019-03-08T05:31:29.253Z,35.18
2019-03-08T05:34:03.530Z,35.19
2019-03-08T05:36:31.317Z,35.20
2019-03-08T05:38:59.497Z,35.21
2019-03-08T05:41:27.393Z,35.31
2019-03-08T05:44:45.952Z,35.14
2019-03-08T05:47:18.452Z,35.00
2019-03-08T05:49:45.939Z,35.26
2019-03-08T05:52:14.320Z,35.31
2019-03-08T05:54:43.220Z,35.30
2019-03-08T05:57:11.064Z,35.37
2019-03-08T05:59:39.859Z,35.40
2019-03-08T06:02:07.692Z,35.30
2019-03-08T06:04:36.165Z,35.44
2019-03-08T06:07:04.112Z,35.40
2019-03-08T06:09:31.795Z,35.34
2019-03-08T06:11:59.603Z,35.29
2019-03-08T06:14:27.738Z,35.14
2019-03-08T06:16:55.612Z,34.87
2019-03-08T06:19:23.589Z,34.98
2019-03-08T06:21:51.276Z,34.77
2019-03-08T06:24:18.986Z,34.73
2019-03-08T06:26:46.682Z,34.83
2019-03-08T06:29:14.913Z,35.02
2019-03-08T06:31:42.925Z,35.11
2019-03-08T06:34:11.027Z,35.11
2019-03-08T06:36:39.133Z,35.06
2019-03-08T06:39:08.562Z,35.01
2019-03-08T06:41:36.495Z,35.11
2019-03-08T06:44:04.466Z,35.12
2019-03-08T06:46:33.118Z,34.88
2019-03-08T06:49:01.009Z,35.02
2019-03-08T06:51:29.158Z,35.27
2019-03-08T06:53:57.458Z,35.22
2019-03-08T06:56:25.579Z,35.39
2019-03-08T06:59:13.561Z,35.49
2019-03-08T07:01:42.365Z,35.45
2019-03-08T07:04:10.286Z,35.66
2019-03-08T07:06:37.974Z,35.56
2019-03-08T07:09:07.280Z,35.33
2019-03-08T07:11:35.449Z,35.31
2019-03-08T07:14:03.443Z,35.53
2019-03-08T07:16:31.486Z,35.33
2019-03-08T07:18:59.561Z,35.32
2019-03-08T07:21:40.929Z,35.18
2019-03-08T07:24:18.525Z,34.99
2019-03-08T07:27:13.333Z,34.83
2019-03-08T07:30:06.829Z,34.34
2019-03-08T07:32:43.692Z,34.30
2019-03-08T07:35:48.826Z,34.84
2019-03-08T07:38:39.547Z,34.96
2019-03-08T07:41:29.723Z,34.51
2019-03-08T07:44:06.247Z,34.12
2019-03-08T07:47:09.507Z,34.78
2019-03-08T07:50:06.699Z,34.80
2019-03-08T07:52:54.330Z,34.90
2019-03-08T07:55:33.034Z,34.28
2019-03-08T07:58:12.543Z,34.18
2019-03-08T08:01:06.163Z,34.62
2019-03-08T08:03:59.392Z,34.60
2019-03-08T08:06:37.508Z,34.59
2019-03-08T08:09:33.000Z,34.18
2019-03-08T08:12:27.061Z,34.07
2019-03-08T08:15:03.748Z,34.51
2019-03-08T08:17:46.585Z,34.49
2019-03-08T08:20:27.329Z,34.34
2019-03-08T08:23:20.910Z,34.08
2019-03-08T08:25:58.958Z,33.59
2019-03-08T08:28:49.723Z,33.98
2019-03-08T08:31:35.822Z,34.11
2019-03-08T08:34:24.606Z,34.15
2019-03-08T08:37:14.798Z,34.10
2019-03-08T08:40:08.185Z,33.74
2019-03-08T08:42:51.548Z,33.59
2019-03-08T08:45:38.911Z,34.21
2019-03-08T08:48:21.387Z,34.40
2019-03-08T08:51:07.219Z,34.20
2019-03-08T08:53:54.674Z,34.14
2019-03-08T08:56:51.102Z,34.26
2019-03-08T08:59:38.845Z,34.37
2019-03-08T09:02:21.550Z,34.30
2019-03-08T09:05:18.916Z,34.20
2019-03-08T09:07:54.881Z,33.95
2019-03-08T09:10:41.205Z,34.05
2019-03-08T09:13:23.013Z,34.31
2019-03-08T09:16:11.317Z,34.40
2019-03-08T09:19:05.154Z,34.53
2019-03-08T09:21:55.751Z,34.11
2019-03-08T09:24:39.514Z,34.71
2019-03-08T09:27:25.628Z,34.73
2019-03-08T09:30:14.258Z,34.66
2019-03-08T09:32:48.951Z,34.79
2019-03-08T09:35:42.511Z,34.31
2019-03-08T09:38:39.270Z,34.59
2019-03-08T09:41:25.563Z,34.89
2019-03-08T09:44:00.824Z,34.46
2019-03-08T09:46:47.034Z,34.00
2019-03-08T09:49:37.186Z,33.51
2019-03-08T09:52:16.100Z,32.97
2019-03-08T09:55:04.335Z,32.85
2019-03-08T09:57:52.205Z,33.28
2019-03-08T10:00:39.781Z,33.32
2019-03-08T10:03:20.283Z,33.35
2019-03-08T10:06:22.843Z,32.62
2019-03-08T10:09:19.966Z,32.64
2019-03-08T10:12:16.569Z,33.32
2019-03-08T10:15:02.406Z,33.30
2019-03-08T10:17:49.791Z,32.79
2019-03-08T10:20:35.253Z,32.79
2019-03-08T10:23:29.006Z,32.94
2019-03-08T10:26:09.547Z,33.01
2019-03-08T10:28:56.841Z,32.88
2019-03-08T10:31:35.039Z,32.61
2019-03-08T10:34:31.715Z,32.92
2019-03-08T10:37:22.011Z,33.07
2019-03-08T10:40:14.659Z,33.09
2019-03-08T10:42:54.092Z,33.06
2019-03-08T10:45:53.549Z,32.91
2019-03-08T10:48:36.748Z,32.89
2019-03-08T10:51:26.418Z,32.70
2019-03-08T10:54:29.484Z,32.72
2019-03-08T10:57:12.932Z,32.67
2019-03-08T11:00:09.585Z,32.25
2019-03-08T11:02:57.289Z,32.54
2019-03-08T11:05:40.009Z,32.64
2019-03-08T11:08:16.641Z,32.65
2019-03-08T11:10:56.634Z,31.92
2019-03-08T11:13:45.686Z,32.50
2019-03-08T11:16:37.294Z,32.43
2019-03-08T11:19:34.084Z,32.68
2019-03-08T11:22:27.603Z,32.58
2019-03-08T11:25:13.806Z,32.45
2019-03-08T11:27:54.801Z,32.46
2019-03-08T11:30:54.439Z,31.58
2019-03-08T11:33:47.640Z,32.37
2019-03-08T11:36:32.891Z,32.68
2019-03-08T11:39:12.439Z,32.29
2019-03-08T11:42:18.503Z,32.82
2019-03-08T11:45:05.692Z,32.83
2019-03-08T11:47:44.351Z,33.12
2019-03-08T11:50:37.422Z,32.62
2019-03-08T11:53:14.187Z,31.83
2019-03-08T11:56:13.815Z,32.47
2019-03-08T11:59:03.457Z,32.10
2019-03-08T12:01:53.803Z,32.46
2019-03-08T12:04:40.863Z,32.56
2019-03-08T12:07:17.362Z,32.15
2019-03-08T12:10:03.182Z,32.54
2019-03-08T12:12:56.473Z,32.67
2019-03-08T12:15:46.793Z,32.56
2019-03-08T12:18:34.257Z,32.57
2019-03-08T12:21:20.398Z,32.55
2019-03-08T12:24:19.951Z,32.48
2019-03-08T12:27:07.487Z,32.47
2019-03-08T12:30:04.715Z,32.68
2019-03-08T12:32:38.061Z,32.66
2019-03-08T12:35:26.198Z,32.36
2019-03-08T12:38:11.354Z,32.54
2019-03-08T12:41:04.665Z,32.69
2019-03-08T12:43:54.987Z,32.67
2019-03-08T12:46:51.393Z,32.53
2019-03-08T12:49:34.180Z,32.50
2019-03-08T12:52:19.273Z,32.25
2019-03-08T12:55:05.160Z,32.38
2019-03-08T12:58:01.592Z,32.53
2019-03-08T13:00:55.262Z,32.68
2019-03-08T13:03:35.118Z,32.15
2019-03-08T13:06:10.742Z,32.73
2019-03-08T13:08:46.411Z,32.86
2019-03-08T13:11:14.265Z,32.97
2019-03-08T13:13:43.119Z,32.98
2019-03-08T13:16:14.230Z,33.02
2019-03-08T13:18:42.246Z,33.07
2019-03-08T13:21:10.789Z,33.02
2019-03-08T13:23:38.672Z,32.95
2019-03-08T13:26:06.535Z,32.96
2019-03-08T13:28:35.131Z,32.77
2019-03-08T13:31:05.271Z,32.69
2019-03-08T13:33:32.983Z,32.46
2019-03-08T13:36:00.682Z,32.44
2019-03-08T13:38:29.849Z,32.62
2019-03-08T13:40:58.144Z,32.53
2019-03-08T13:43:26.104Z,32.44
2019-03-08T13:46:34.922Z,32.24
2019-03-08T13:49:02.912Z,32.13
2019-03-08T13:51:30.955Z,32.29
2019-03-08T13:53:58.598Z,32.02
2019-03-08T13:56:26.558Z,32.04
2019-03-08T13:58:54.862Z,32.15
2019-03-08T14:01:22.513Z,31.71
2019-03-08T14:03:50.603Z,32.29
2019-03-08T14:06:18.961Z,32.23
2019-03-08T14:08:46.773Z,31.86
2019-03-08T14:11:14.991Z,32.16
2019-03-08T14:13:42.570Z,32.56
2019-03-08T14:16:10.630Z,32.75
2019-03-08T14:18:38.454Z,32.81
2019-03-08T14:21:06.344Z,32.95
2019-03-08T14:23:34.565Z,32.93
2019-03-08T14:26:02.268Z,33.07
2019-03-08T14:28:31.172Z,32.96
2019-03-08T14:31:08.913Z,33.08
2019-03-08T14:33:38.181Z,33.08
2019-03-08T14:36:07.147Z,32.94
2019-03-08T14:38:37.683Z,32.53
2019-03-08T14:41:21.301Z,32.62
2019-03-08T14:44:08.560Z,32.95
2019-03-08T14:46:43.780Z,32.92
2019-03-08T14:49:11.803Z,33.20
2019-03-08T14:51:40.096Z,33.27
2019-03-08T14:54:09.851Z,33.26
2019-03-08T14:56:37.929Z,33.32
2019-03-08T14:59:05.704Z,33.26
2019-03-08T15:01:33.337Z,33.14
2019-03-08T15:04:00.989Z,32.85
2019-03-08T15:06:29.611Z,32.96
2019-03-08T15:08:57.478Z,32.77
2019-03-08T15:11:25.534Z,32.55
2019-03-08T15:13:53.312Z,32.16
2019-03-08T15:16:21.746Z,32.46
2019-03-08T15:18:49.446Z,31.67
2019-03-08T15:21:17.776Z,33.02
2019-03-08T15:23:46.447Z,32.98
2019-03-08T15:26:14.386Z,33.18
2019-03-08T15:28:42.182Z,33.18
2019-03-08T15:31:09.936Z,33.30
2019-03-08T15:33:37.846Z,33.31
2019-03-08T15:36:05.492Z,33.31
2019-03-08T15:38:33.339Z,33.32
2019-03-08T15:41:01.411Z,33.32
2019-03-08T15:43:29.048Z,33.24
2019-03-08T15:45:56.738Z,33.33
2019-03-08T15:48:24.487Z,33.45
2019-03-08T15:50:52.325Z,32.59
2019-03-08T15:53:20.087Z,33.01
2019-03-08T15:55:52.798Z,33.14
2019-03-08T15:58:18.282Z,33.34
2019-03-08T16:00:46.172Z,32.92
2019-03-08T16:03:13.966Z,33.00
2019-03-08T16:05:41.716Z,33.15
2019-03-08T16:08:10.375Z,33.29
2019-03-08T16:10:39.182Z,33.29
2019-03-08T16:13:07.331Z,33.39
2019-03-08T16:15:36.109Z,33.36
2019-03-08T16:18:03.864Z,33.57
2019-03-08T16:20:31.715Z,33.55
2019-03-08T16:23:02.666Z,33.70
2019-03-08T16:25:29.527Z,33.71
2019-03-08T16:27:57.748Z,33.34
2019-03-08T16:30:31.710Z,33.08
2019-03-08T16:33:27.748Z,32.77
2019-03-08T16:36:25.707Z,32.42
2019-03-08T16:39:11.940Z,33.34
2019-03-08T16:42:18.241Z,33.87
2019-03-08T16:45:05.764Z,34.05
2019-03-08T16:47:51.953Z,33.14
2019-03-08T16:50:35.958Z,33.85
2019-03-08T16:53:21.395Z,34.24
2019-03-08T16:55:57.307Z,34.10
2019-03-08T16:58:43.550Z,33.01
2019-03-08T17:01:26.040Z,32.07
2019-03-08T17:04:12.796Z,33.13
2019-03-08T17:06:46.475Z,32.81
2019-03-08T17:09:27.800Z,33.20
2019-03-08T17:12:08.092Z,33.63
2019-03-08T17:15:10.283Z,34.22
2019-03-08T17:18:15.913Z,33.56
2019-03-08T17:21:06.307Z,33.75
2019-03-08T17:24:02.656Z,34.44
2019-03-08T17:26:52.721Z,34.39
2019-03-08T17:29:38.507Z,33.86
2019-03-08T17:32:11.785Z,34.85
2019-03-08T17:35:08.376Z,34.96
2019-03-08T17:37:50.867Z,34.91
2019-03-08T17:40:37.080Z,34.36
2019-03-08T17:43:17.806Z,33.75
2019-03-08T17:45:53.845Z,33.60
2019-03-08T17:48:47.032Z,33.34
2019-03-08T17:51:37.570Z,34.18
2019-03-08T17:54:27.586Z,34.47
2019-03-08T17:57:15.253Z,34.36
2019-03-08T18:00:15.278Z,34.76
2019-03-08T18:02:58.867Z,35.37
2019-03-08T18:05:52.476Z,35.38
2019-03-08T18:08:39.148Z,35.60
2019-03-08T18:11:17.143Z,35.37
2019-03-08T18:14:07.692Z,35.44
2019-03-08T18:16:49.859Z,36.02
2019-03-08T18:19:56.276Z,35.90
2019-03-08T18:22:44.089Z,35.83
2019-03-08T18:25:29.205Z,35.38
2019-03-08T18:28:26.006Z,34.82
2019-03-08T18:31:14.114Z,35.69
2019-03-08T18:33:47.745Z,35.96
2019-03-08T18:36:50.721Z,36.04
2019-03-08T18:39:37.702Z,35.72
2019-03-08T18:42:15.019Z,35.04
2019-03-08T18:45:04.987Z,36.57
2019-03-08T18:47:52.405Z,36.44
2019-03-08T18:50:42.586Z,36.46
2019-03-08T18:53:39.552Z,36.86
2019-03-08T18:56:26.120Z,35.73
2019-03-08T18:59:16.775Z,36.12
2019-03-08T19:02:16.938Z,36.11
2019-03-08T19:05:04.592Z,35.66
2019-03-08T19:07:55.072Z,34.48
2019-03-08T19:10:33.674Z,35.27
2019-03-08T19:13:11.375Z,36.18
2019-03-08T19:15:57.456Z,36.49
2019-03-08T19:18:44.904Z,36.32
2019-03-08T19:21:31.231Z,35.61
2019-03-08T19:24:08.268Z,35.38
2019-03-08T19:26:54.298Z,35.33
2019-03-08T19:29:45.778Z,35.49
2019-03-08T19:32:36.282Z,35.58
2019-03-08T19:35:10.726Z,34.96
2019-03-08T19:37:56.822Z,35.63
2019-03-08T19:41:02.841Z,35.69
2019-03-08T19:43:41.480Z,36.45
2019-03-08T19:46:31.987Z,36.48
2019-03-08T19:49:18.600Z,36.49
2019-03-08T19:52:05.015Z,35.13
2019-03-08T19:54:52.590Z,35.89
2019-03-08T19:57:38.792Z,36.20
2019-03-08T20:00:30.273Z,36.70
2019-03-08T20:03:17.347Z,36.57
2019-03-08T20:05:51.721Z,36.98
2019-03-08T20:08:37.597Z,36.43
2019-03-08T20:11:31.068Z,36.42
2019-03-08T20:14:18.600Z,36.38
2019-03-08T20:17:04.073Z,36.81
2019-03-08T20:19:39.265Z,36.65
2019-03-08T20:22:18.148Z,35.96
2019-03-08T20:25:11.572Z,35.95
2019-03-08T20:28:11.186Z,36.48
2019-03-08T20:30:58.670Z,36.47
2019-03-08T20:33:49.647Z,35.79
2019-03-08T20:36:36.561Z,35.17
2019-03-08T20:39:40.301Z,36.37
2019-03-08T20:42:22.444Z,36.37
2019-03-08T20:45:10.079Z,36.21
2019-03-08T20:47:37.899Z,35.06
2019-03-08T20:50:08.207Z,35.08
2019-03-08T20:52:36.236Z,34.55
2019-03-08T20:55:04.091Z,35.65
2019-03-08T20:57:32.268Z,35.43
2019-03-08T21:00:00.596Z,35.11
2019-03-08T21:02:28.793Z,35.18
2019-03-08T21:04:57.548Z,35.27
2019-03-08T21:07:25.993Z,35.42
2019-03-08T21:09:53.953Z,35.38
2019-03-08T21:12:21.660Z,35.46
2019-03-08T21:14:50.092Z,35.46
2019-03-08T21:17:20.338Z,35.18
2019-03-08T21:19:48.577Z,34.83
2019-03-08T21:22:16.689Z,34.76
2019-03-08T21:24:45.266Z,34.25
2019-03-08T21:27:13.417Z,34.07
2019-03-08T21:29:41.306Z,34.16
2019-03-08T21:32:10.778Z,34.29
2019-03-08T21:34:38.481Z,34.79
2019-03-08T21:37:06.060Z,35.22
2019-03-08T21:39:34.602Z,35.35
2019-03-08T21:42:02.531Z,35.56
2019-03-08T21:44:31.994Z,35.43
2019-03-08T21:46:59.994Z,35.53
2019-03-08T21:49:28.092Z,35.54
2019-03-08T21:51:55.951Z,35.51
2019-03-08T21:54:24.905Z,35.52
2019-03-08T21:56:53.596Z,35.38
2019-03-08T21:59:21.412Z,34.84
2019-03-08T22:01:49.059Z,34.64
2019-03-08T22:04:25.773Z,34.17
2019-03-08T22:06:53.478Z,34.04
2019-03-08T22:09:31.064Z,33.91
2019-03-08T22:11:58.776Z,34.43
2019-03-08T22:14:26.891Z,35.44
2019-03-08T22:16:54.763Z,35.43
2019-03-08T22:19:22.453Z,35.57
2019-03-08T22:21:50.284Z,35.49
2019-03-08T22:24:18.123Z,35.46
2019-03-08T22:26:45.899Z,35.59
2019-03-08T22:29:13.875Z,35.49
2019-03-08T22:31:42.160Z,35.50
2019-03-08T22:34:09.914Z,35.62
2019-03-08T22:36:37.422Z,35.19
2019-03-08T22:39:06.232Z,34.79
2019-03-08T22:41:34.336Z,34.44
2019-03-08T22:44:02.221Z,34.50
2019-03-08T22:46:30.242Z,34.14
2019-03-08T22:48:58.475Z,34.36
2019-03-08T22:51:27.560Z,34.06
2019-03-08T22:53:55.499Z,34.48
2019-03-08T22:56:23.314Z,35.06
2019-03-08T22:58:51.222Z,35.17
2019-03-08T23:01:19.926Z,35.19
2019-03-08T23:03:47.702Z,35.21
2019-03-08T23:06:17.454Z,35.34
2019-03-08T23:08:46.649Z,35.28
2019-03-08T23:11:17.086Z,35.28
2019-03-08T23:13:46.511Z,35.35
2019-03-08T23:16:16.398Z,35.13
2019-03-08T23:18:44.978Z,34.80
2019-03-08T23:21:14.219Z,34.35
2019-03-08T23:23:42.790Z,33.81
2019-03-08T23:26:10.876Z,34.44
2019-03-08T23:28:49.363Z,34.09
2019-03-08T23:31:25.319Z,34.33
2019-03-08T23:33:54.112Z,35.05
2019-03-08T23:36:22.943Z,35.08
2019-03-08T23:38:52.183Z,34.97
2019-03-08T23:41:21.393Z,35.21
2019-03-08T23:43:50.987Z,35.14
2019-03-08T23:46:19.356Z,35.14
2019-03-08T23:48:47.712Z,35.21
2019-03-08T23:51:16.190Z,35.02
2019-03-08T23:53:46.328Z,34.57
2019-03-08T23:56:14.609Z,34.30
2019-03-08T23:58:42.930Z,34.10
